createdAt,value
2018-10-09T00:00:12.022Z,16.27
2018-10-09T00:02:15.904Z,14.85
2018-10-09T00:04:19.786Z,18.27
2018-10-09T00:06:23.675Z,17.42
2018-10-09T00:08:27.594Z,15.63
2018-10-09T00:10:31.885Z,15.78
2018-10-09T00:12:35.835Z,16.82
2018-10-09T00:14:39.659Z,14.35
2018-10-09T00:16:43.612Z,15.23
2018-10-09T00:18:47.554Z,15.85
2018-10-09T00:20:52.208Z,16.12
2018-10-09T00:23:00.926Z,17.67
2018-10-09T00:25:06.471Z,16.77
2018-10-09T00:27:10.572Z,16.67
2018-10-09T00:29:14.779Z,15.50
2018-10-09T00:31:18.723Z,14.63
2018-10-09T00:33:23.438Z,15.65
2018-10-09T00:35:27.337Z,14.65
2018-10-09T00:37:31.248Z,14.40
2018-10-09T00:39:35.256Z,17.12
2018-10-09T00:41:39.231Z,14.63
2018-10-09T00:43:43.529Z,15.35
2018-10-09T00:45:47.408Z,13.32
2018-10-09T00:47:51.329Z,14.30
2018-10-09T00:49:55.318Z,14.65
2018-10-09T00:51:59.265Z,14.43
2018-10-09T00:54:03.239Z,15.10
2018-10-09T00:56:07.596Z,15.08
2018-10-09T00:58:11.511Z,14.07
2018-10-09T01:00:16.025Z,14.65
2018-10-09T01:02:20.029Z,17.32
2018-10-09T01:04:23.978Z,18.12
2018-10-09T01:06:28.469Z,17.17
2018-10-09T01:08:32.372Z,17.90
2018-10-09T01:10:36.417Z,15.70
2018-10-09T01:12:40.315Z,18.40
2018-10-09T01:14:44.258Z,16.77
2018-10-09T01:16:48.179Z,14.15
2018-10-09T01:18:52.066Z,15.70
2018-10-09T01:20:56.810Z,14.55
2018-10-09T01:23:02.217Z,16.50
2018-10-09T01:25:06.221Z,18.92
2018-10-09T01:27:10.361Z,20.85
2018-10-09T01:29:15.225Z,21.85
2018-10-09T01:31:19.507Z,21.40
2018-10-09T01:33:23.462Z,24.35
2018-10-09T01:35:27.468Z,18.37
2018-10-09T01:37:31.445Z,23.32
2018-10-09T01:39:35.793Z,18.80
2018-10-09T01:41:39.951Z,19.25
2018-10-09T01:43:43.918Z,18.82
2018-10-09T01:45:47.817Z,16.75
2018-10-09T01:47:51.754Z,18.17
2018-10-09T01:49:55.912Z,16.67
2018-10-09T01:51:59.753Z,18.45
2018-10-09T01:54:03.621Z,16.27
2018-10-09T01:56:07.529Z,18.67
2018-10-09T01:58:11.407Z,17.48
2018-10-09T02:00:15.384Z,18.37
2018-10-09T02:02:19.296Z,17.10
2018-10-09T02:04:23.240Z,16.95
2018-10-09T02:06:27.242Z,16.95
2018-10-09T02:08:31.108Z,18.77
2018-10-09T02:10:35.071Z,18.35
2018-10-09T02:12:38.948Z,18.60
2018-10-09T02:14:42.781Z,19.60
2018-10-09T02:16:46.729Z,19.67
2018-10-09T02:18:51.635Z,20.10
2018-10-09T02:20:55.534Z,18.27
2018-10-09T02:22:59.420Z,19.55
2018-10-09T02:25:03.298Z,18.17
2018-10-09T02:27:07.931Z,16.48
2018-10-09T02:29:11.748Z,17.25
2018-10-09T02:31:16.014Z,18.45
2018-10-09T02:33:20.326Z,15.88
2018-10-09T02:35:24.291Z,18.35
2018-10-09T02:37:28.159Z,18.98
2018-10-09T02:39:32.057Z,15.00
2018-10-09T02:41:35.961Z,16.12
2018-10-09T02:43:39.835Z,15.80
2018-10-09T02:45:43.668Z,22.98
2018-10-09T02:47:47.572Z,20.75
2018-10-09T02:49:51.456Z,18.30
2018-10-09T02:51:55.316Z,16.42
2018-10-09T02:53:59.466Z,16.97
2018-10-09T02:56:03.305Z,16.23
2018-10-09T02:58:07.132Z,18.50
2018-10-09T03:00:11.011Z,16.25
2018-10-09T03:02:14.886Z,19.52
2018-10-09T03:04:18.723Z,14.13
2018-10-09T03:06:22.557Z,14.63
2018-10-09T03:08:26.408Z,16.23
2018-10-09T03:10:30.432Z,15.68
2018-10-09T03:12:34.341Z,15.38
2018-10-09T03:14:38.177Z,14.50
2018-10-09T03:16:41.996Z,14.78
2018-10-09T03:18:45.930Z,16.45
2018-10-09T03:20:49.909Z,15.75
2018-10-09T03:22:53.968Z,14.80
2018-10-09T03:24:58.483Z,17.23
2018-10-09T03:27:03.444Z,16.12
2018-10-09T03:29:07.792Z,18.67
2018-10-09T03:31:11.698Z,17.07
2018-10-09T03:33:15.573Z,13.88
2018-10-09T03:35:19.474Z,17.52
2018-10-09T03:37:23.415Z,15.90
2018-10-09T03:39:27.527Z,14.78
2018-10-09T03:41:31.431Z,16.50
2018-10-09T03:43:35.374Z,15.50
2018-10-09T03:45:39.204Z,16.55
2018-10-09T03:47:43.143Z,15.55
2018-10-09T03:49:47.011Z,15.68
2018-10-09T03:51:50.892Z,17.90
2018-10-09T03:53:54.827Z,16.73
2018-10-09T03:55:58.736Z,14.03
2018-10-09T03:58:02.918Z,14.10
2018-10-09T04:00:07.241Z,14.98
2018-10-09T04:02:11.573Z,15.18
2018-10-09T04:04:15.484Z,14.85
2018-10-09T04:06:19.375Z,16.77
2018-10-09T04:08:23.475Z,14.07
2018-10-09T04:10:27.392Z,19.12
2018-10-09T04:12:31.357Z,20.10
2018-10-09T04:14:35.820Z,16.50
2018-10-09T04:16:39.660Z,16.62
2018-10-09T04:18:44.476Z,18.25
2018-10-09T04:20:48.532Z,19.32
2018-10-09T04:22:52.516Z,15.53
2018-10-09T04:24:56.476Z,16.10
2018-10-09T04:27:00.382Z,18.95
2018-10-09T04:29:04.382Z,16.85
2018-10-09T04:31:09.217Z,15.48
2018-10-09T04:33:13.194Z,15.48
2018-10-09T04:35:18.110Z,16.50
2018-10-09T04:37:22.487Z,16.10
2018-10-09T04:39:26.312Z,17.52
2018-10-09T04:41:30.152Z,16.30
2018-10-09T04:43:34.294Z,16.52
2018-10-09T04:45:38.219Z,17.23
2018-10-09T04:47:42.148Z,15.93
2018-10-09T04:49:46.953Z,20.77
2018-10-09T04:51:51.713Z,24.55
2018-10-09T04:53:55.611Z,20.32
2018-10-09T04:55:59.644Z,19.23
2018-10-09T04:58:03.556Z,19.00
2018-10-09T05:00:08.769Z,18.52
2018-10-09T05:02:12.948Z,21.20
2018-10-09T05:04:17.635Z,24.18
2018-10-09T05:06:22.171Z,20.20
2018-10-09T05:08:27.315Z,20.20
2018-10-09T05:10:31.360Z,26.23
2018-10-09T05:12:35.511Z,20.97
2018-10-09T05:14:39.557Z,20.32
2018-10-09T05:16:43.540Z,20.45
2018-10-09T05:18:47.552Z,16.85
2018-10-09T05:20:51.596Z,19.37
2018-10-09T05:22:55.583Z,19.55
2018-10-09T05:24:59.751Z,19.67
2018-10-09T05:27:03.741Z,19.50
2018-10-09T05:29:07.728Z,21.60
2018-10-09T05:31:11.902Z,25.25
2018-10-09T05:33:15.932Z,24.52
2018-10-09T05:35:22.085Z,21.85
2018-10-09T05:37:26.504Z,24.27
2018-10-09T05:39:30.552Z,22.82
2018-10-09T05:41:34.893Z,21.37
2018-10-09T05:43:38.943Z,19.82
2018-10-09T05:45:42.876Z,21.02
2018-10-09T05:47:46.732Z,23.87
2018-10-09T05:49:50.656Z,19.98
2018-10-09T05:51:54.493Z,21.42
2018-10-09T05:53:58.304Z,26.75
2018-10-09T05:56:02.189Z,22.62
2018-10-09T05:58:06.275Z,23.55
2018-10-09T06:00:11.003Z,19.95
2018-10-09T06:02:14.883Z,19.27
2018-10-09T06:04:18.742Z,19.05
2018-10-09T06:06:22.615Z,22.22
2018-10-09T06:08:28.744Z,18.37
2018-10-09T06:10:32.739Z,20.15
2018-10-09T06:12:36.763Z,17.70
2018-10-09T06:14:40.864Z,22.95
2018-10-09T06:16:44.741Z,20.55
2018-10-09T06:18:48.621Z,20.95
2018-10-09T06:20:52.800Z,24.20
2018-10-09T06:22:56.693Z,20.55
2018-10-09T06:25:00.805Z,22.13
2018-10-09T06:27:04.732Z,18.40
2018-10-09T06:29:08.627Z,19.62
2018-10-09T06:31:13.230Z,19.48
2018-10-09T06:33:17.099Z,20.12
2018-10-09T06:35:20.985Z,21.15
2018-10-09T06:37:24.907Z,17.30
2018-10-09T06:39:28.551Z,17.53
2018-10-09T06:41:32.111Z,13.23
2018-10-09T06:43:36.038Z,13.23
2018-10-09T06:45:39.978Z,14.40
2018-10-09T06:47:46.242Z,15.93
2018-10-09T06:49:50.082Z,14.97
2018-10-09T06:51:53.636Z,15.73
2018-10-09T06:53:57.642Z,17.13
2018-10-09T06:56:01.201Z,14.27
2018-10-09T06:58:04.841Z,13.63
2018-10-09T07:00:08.777Z,14.93
2018-10-09T07:02:12.520Z,14.80
2018-10-09T07:04:18.978Z,17.40
2018-10-09T07:06:23.081Z,14.37
2018-10-09T07:08:26.703Z,17.80
2018-10-09T07:10:30.441Z,15.13
2018-10-09T07:12:34.398Z,17.50
2018-10-09T07:14:38.741Z,17.13
2018-10-09T07:16:43.067Z,17.97
2018-10-09T07:18:46.657Z,16.57
2018-10-09T07:20:50.221Z,20.30
2018-10-09T07:22:53.831Z,18.90
2018-10-09T07:24:59.064Z,18.17
2018-10-09T07:27:02.659Z,16.00
2018-10-09T07:29:06.287Z,17.57
2018-10-09T07:31:09.914Z,18.33
2018-10-09T07:33:13.932Z,19.53
2018-10-09T07:35:17.571Z,16.07
2018-10-09T07:37:21.391Z,19.27
2018-10-09T07:39:25.264Z,16.53
2018-10-09T07:41:29.875Z,15.83
2018-10-09T07:43:33.942Z,18.63
2018-10-09T07:45:37.804Z,16.93
2018-10-09T07:47:41.733Z,20.07
2018-10-09T07:49:45.436Z,20.77
2018-10-09T07:51:49.330Z,21.40
2018-10-09T07:53:53.223Z,20.63
2018-10-09T07:55:57.118Z,18.50
2018-10-09T07:58:00.885Z,21.33
2018-10-09T08:00:04.725Z,18.07
2018-10-09T08:02:08.829Z,18.17
2018-10-09T08:04:12.622Z,19.10
2018-10-09T08:06:16.745Z,19.43
2018-10-09T08:08:21.170Z,20.65
2018-10-09T08:10:24.989Z,20.23
2018-10-09T08:12:30.281Z,19.17
2018-10-09T08:14:33.927Z,18.30
2018-10-09T08:16:37.824Z,19.90
2018-10-09T08:18:41.739Z,20.47
2018-10-09T08:20:45.687Z,20.93
2018-10-09T08:22:49.482Z,21.43
2018-10-09T08:24:53.704Z,20.47
2018-10-09T08:26:57.550Z,21.97
2018-10-09T08:29:01.458Z,23.23
2018-10-09T08:31:05.249Z,25.00
2018-10-09T08:33:09.045Z,24.23
2018-10-09T08:35:13.069Z,24.03
2018-10-09T08:37:17.448Z,23.80
2018-10-09T08:39:21.192Z,24.33
2018-10-09T08:41:25.125Z,22.57
2018-10-09T08:43:39.219Z,23.00
2018-10-09T08:45:50.270Z,21.63
2018-10-09T08:47:58.814Z,21.77
2018-10-09T08:50:06.241Z,22.70
2018-10-09T08:52:22.205Z,23.27
2018-10-09T08:54:30.047Z,25.50
2018-10-09T08:56:42.307Z,24.20
2018-10-09T08:58:55.656Z,23.40
2018-10-09T09:01:04.344Z,23.57
2018-10-09T09:03:13.580Z,22.53
2018-10-09T09:05:22.076Z,23.20
2018-10-09T09:07:29.575Z,24.20
2018-10-09T09:09:35.552Z,24.33
2018-10-09T09:11:43.067Z,24.73
2018-10-09T09:13:47.804Z,24.53
2018-10-09T09:15:55.013Z,23.37
2018-10-09T09:18:02.179Z,25.50
2018-10-09T09:20:08.509Z,23.10
2018-10-09T09:22:15.698Z,22.07
2018-10-09T09:24:26.391Z,23.77
2018-10-09T09:26:34.174Z,23.37
2018-10-09T09:28:41.982Z,24.43
2018-10-09T09:30:47.297Z,22.00
2018-10-09T09:32:53.885Z,22.90
2018-10-09T09:34:59.856Z,22.80
2018-10-09T09:37:05.264Z,21.30
2018-10-09T09:39:10.457Z,21.33
2018-10-09T09:41:14.404Z,22.43
2018-10-09T09:43:18.211Z,22.13
2018-10-09T09:45:22.120Z,21.40
2018-10-09T09:47:26.833Z,20.90
2018-10-09T09:49:31.216Z,20.03
2018-10-09T09:51:34.862Z,19.97
2018-10-09T09:53:38.621Z,19.07
2018-10-09T09:55:42.478Z,19.57
2018-10-09T09:57:46.291Z,19.20
2018-10-09T09:59:50.133Z,16.83
2018-10-09T10:01:54.948Z,16.43
2018-10-09T10:03:59.060Z,17.23
2018-10-09T10:06:06.091Z,17.73
2018-10-09T10:08:10.198Z,14.73
2018-10-09T10:10:14.850Z,16.53
2018-10-09T10:12:18.615Z,16.53
2018-10-09T10:14:22.354Z,15.83
2018-10-09T10:16:26.734Z,16.93
2018-10-09T10:18:30.663Z,18.37
2018-10-09T10:20:34.333Z,16.43
2018-10-09T10:22:38.225Z,15.93
2018-10-09T10:24:43.137Z,17.67
2018-10-09T10:26:47.196Z,16.23
2018-10-09T10:28:51.709Z,16.27
2018-10-09T10:30:55.348Z,15.07
2018-10-09T10:32:59.153Z,14.80
2018-10-09T10:35:03.754Z,14.70
2018-10-09T10:37:08.283Z,14.03
2018-10-09T10:39:31.717Z,13.97
2018-10-09T10:41:53.141Z,13.40
2018-10-09T10:44:26.050Z,13.10
2018-10-09T10:46:45.074Z,13.70
2018-10-09T10:49:08.359Z,13.30
2018-10-09T10:51:15.735Z,13.73
2018-10-09T10:53:20.940Z,12.87
2018-10-09T10:55:24.745Z,13.07
2018-10-09T10:57:28.806Z,12.93
2018-10-09T10:59:32.582Z,13.57
2018-10-09T11:01:36.309Z,14.37
2018-10-09T11:03:40.278Z,12.57
2018-10-09T11:05:44.091Z,13.47
2018-10-09T11:07:48.332Z,12.90
2018-10-09T11:09:52.107Z,11.73
2018-10-09T11:11:55.972Z,11.97
2018-10-09T11:13:59.689Z,12.40
2018-10-09T11:16:03.760Z,10.50
2018-10-09T11:18:07.889Z,12.20
2018-10-09T11:20:12.204Z,12.90
2018-10-09T11:22:16.029Z,14.20
2018-10-09T11:24:19.802Z,12.70
2018-10-09T11:26:25.911Z,14.00
2018-10-09T11:28:30.005Z,13.17
2018-10-09T11:30:33.778Z,14.73
2018-10-09T11:32:37.644Z,13.27
2018-10-09T11:34:42.175Z,18.70
2018-10-09T11:36:46.245Z,12.90
2018-10-09T11:38:50.059Z,13.63
2018-10-09T11:40:53.918Z,14.10
2018-10-09T11:42:57.873Z,13.37
2018-10-09T11:45:01.741Z,13.87
2018-10-09T11:47:05.639Z,13.97
2018-10-09T11:49:09.344Z,13.27
2018-10-09T11:51:13.177Z,15.63
2018-10-09T11:53:17.828Z,14.83
2018-10-09T11:55:22.788Z,13.87
2018-10-09T11:57:26.769Z,14.30
2018-10-09T11:59:31.318Z,13.93
2018-10-09T12:01:35.993Z,14.20
2018-10-09T12:03:40.047Z,13.67
2018-10-09T12:05:44.064Z,14.33
2018-10-09T12:07:47.928Z,15.03
2018-10-09T12:09:51.692Z,13.40
2018-10-09T12:11:57.774Z,14.70
2018-10-09T12:14:02.210Z,13.73
2018-10-09T12:16:06.004Z,14.23
2018-10-09T12:18:09.877Z,14.43
2018-10-09T12:20:14.351Z,14.80
2018-10-09T12:22:18.256Z,16.07
2018-10-09T12:24:22.523Z,13.67
2018-10-09T12:26:26.179Z,14.93
2018-10-09T12:28:29.992Z,14.70
2018-10-09T12:30:33.804Z,15.30
2018-10-09T12:32:37.617Z,14.80
2018-10-09T12:34:41.516Z,14.53
2018-10-09T12:36:45.325Z,15.00
2018-10-09T12:38:49.055Z,13.57
2018-10-09T12:40:52.700Z,14.67
2018-10-09T12:42:56.812Z,13.87
2018-10-09T12:45:00.588Z,14.37
2018-10-09T12:47:04.547Z,14.07
2018-10-09T12:49:08.521Z,13.50
2018-10-09T12:51:12.677Z,14.03
2018-10-09T12:53:16.810Z,15.60
2018-10-09T12:55:20.557Z,14.40
2018-10-09T12:57:24.317Z,15.50
2018-10-09T12:59:27.981Z,14.37
2018-10-09T13:01:31.756Z,14.17
2018-10-09T13:03:35.478Z,13.97
2018-10-09T13:05:39.684Z,14.43
2018-10-09T13:07:43.458Z,15.20
2018-10-09T13:09:47.113Z,14.73
2018-10-09T13:11:51.264Z,15.80
2018-10-09T13:13:55.107Z,14.40
2018-10-09T13:15:58.780Z,14.83
2018-10-09T13:18:03.268Z,15.60
2018-10-09T13:20:08.127Z,14.20
2018-10-09T13:22:13.437Z,15.60
2018-10-09T13:24:17.934Z,14.33
2018-10-09T13:26:21.761Z,14.60
2018-10-09T13:28:32.249Z,14.73
2018-10-09T13:30:37.200Z,13.97
2018-10-09T13:32:43.628Z,16.10
2018-10-09T13:34:47.423Z,14.40
2018-10-09T13:36:51.218Z,15.10
2018-10-09T13:38:55.400Z,15.27
2018-10-09T13:41:15.033Z,14.63
2018-10-09T13:43:32.107Z,13.80
2018-10-09T13:45:35.855Z,14.83
2018-10-09T13:47:39.595Z,14.37
2018-10-09T13:49:43.754Z,15.23
2018-10-09T13:51:47.344Z,14.43
2018-10-09T13:53:50.920Z,14.90
2018-10-09T13:55:54.640Z,14.37
2018-10-09T13:57:58.244Z,14.43
2018-10-09T14:00:01.910Z,14.30
2018-10-09T14:02:06.832Z,14.33
2018-10-09T14:04:10.514Z,14.67
2018-10-09T14:06:15.423Z,15.27
2018-10-09T14:08:19.403Z,15.43
2018-10-09T14:10:24.623Z,15.33
2018-10-09T14:12:30.404Z,14.70
2018-10-09T14:14:34.499Z,15.37
2018-10-09T14:16:39.881Z,15.93
2018-10-09T14:18:43.669Z,14.60
2018-10-09T14:20:48.588Z,15.27
2018-10-09T14:22:52.407Z,15.57
2018-10-09T14:24:56.254Z,15.00
2018-10-09T14:27:00.356Z,17.17
2018-10-09T14:29:04.327Z,18.20
2018-10-09T14:31:07.973Z,16.87
2018-10-09T14:33:11.649Z,16.63
2018-10-09T14:35:15.300Z,19.20
2018-10-09T14:37:18.987Z,16.30
2018-10-09T14:39:23.032Z,17.20
2018-10-09T14:41:26.777Z,18.10
2018-10-09T14:43:30.325Z,18.33
2018-10-09T14:45:33.933Z,19.03
2018-10-09T14:47:37.503Z,20.80
2018-10-09T14:49:41.593Z,18.90
2018-10-09T14:51:45.161Z,18.53
2018-10-09T14:53:48.756Z,19.40
2018-10-09T14:55:53.228Z,18.70
2018-10-09T14:57:58.124Z,17.90
2018-10-09T15:00:01.756Z,17.80
2018-10-09T15:02:05.863Z,18.00
2018-10-09T15:04:09.534Z,19.30
2018-10-09T15:06:13.337Z,19.53
2018-10-09T15:08:16.993Z,18.43
2018-10-09T15:10:20.596Z,22.03
2018-10-09T15:12:24.225Z,19.30
2018-10-09T15:14:27.923Z,19.63
2018-10-09T15:16:31.574Z,19.30
2018-10-09T15:18:35.172Z,20.40
2018-10-09T15:20:38.787Z,22.50
2018-10-09T15:22:42.451Z,20.13
2018-10-09T15:24:46.047Z,23.63
2018-10-09T15:26:49.665Z,19.60
2018-10-09T15:28:53.723Z,20.93
2018-10-09T15:30:57.388Z,20.43
2018-10-09T15:33:01.743Z,19.70
2018-10-09T15:35:05.736Z,20.97
2018-10-09T15:37:09.435Z,20.23
2018-10-09T15:39:13.750Z,20.67
2018-10-09T15:41:17.564Z,21.90
2018-10-09T15:43:21.361Z,21.57
2018-10-09T15:45:24.947Z,24.67
2018-10-09T15:47:28.620Z,20.60
2018-10-09T15:49:32.215Z,21.87
2018-10-09T15:51:35.883Z,22.00
2018-10-09T15:53:39.501Z,20.60
2018-10-09T15:55:43.126Z,22.00
2018-10-09T15:57:46.778Z,19.90
2018-10-09T15:59:50.357Z,23.13
2018-10-09T16:01:54.048Z,27.63
2018-10-09T16:03:57.759Z,24.93
2018-10-09T16:06:01.509Z,25.93
2018-10-09T16:08:05.160Z,25.17
2018-10-09T16:10:09.164Z,25.27
2018-10-09T16:12:12.760Z,27.77
2018-10-09T16:14:16.428Z,30.57
2018-10-09T16:16:19.992Z,35.77
2018-10-09T16:18:24.102Z,37.40
2018-10-09T16:20:27.766Z,34.50
2018-10-09T16:22:31.434Z,37.27
2018-10-09T16:24:35.025Z,36.63
2018-10-09T16:26:38.558Z,37.73
2018-10-09T16:28:42.111Z,36.77
2018-10-09T16:30:45.702Z,37.90
2018-10-09T16:32:49.494Z,34.83
2018-10-09T16:34:53.119Z,37.73
2018-10-09T16:36:56.686Z,34.93
2018-10-09T16:39:00.633Z,39.03
2018-10-09T16:41:04.219Z,38.30
2018-10-09T16:43:07.855Z,37.97
2018-10-09T16:45:11.424Z,34.77
2018-10-09T16:47:15.055Z,35.00
2018-10-09T16:49:18.835Z,37.83
2018-10-09T16:51:22.465Z,35.27
2018-10-09T16:53:26.131Z,35.13
2018-10-09T16:55:29.832Z,36.70
2018-10-09T16:57:33.448Z,35.43
2018-10-09T16:59:37.109Z,37.67
2018-10-09T17:01:40.710Z,34.30
2018-10-09T17:03:44.351Z,32.97
2018-10-09T17:05:48.007Z,38.50
2018-10-09T17:07:51.680Z,34.17
2018-10-09T17:09:55.248Z,34.63
2018-10-09T17:11:58.822Z,33.97
2018-10-09T17:14:02.444Z,32.57
2018-10-09T17:16:06.474Z,39.13
2018-10-09T17:18:10.124Z,31.27
2018-10-09T17:20:14.442Z,36.13
2018-10-09T17:22:18.027Z,33.93
2018-10-09T17:24:21.841Z,39.83
2018-10-09T17:26:25.439Z,35.77
2018-10-09T17:28:29.106Z,30.80
2018-10-09T17:30:32.752Z,33.03
2018-10-09T17:32:36.361Z,37.07
2018-10-09T17:34:40.093Z,35.20
2018-10-09T17:36:44.158Z,31.57
2018-10-09T17:38:47.858Z,38.00
2018-10-09T17:40:51.402Z,31.50
2018-10-09T17:42:55.396Z,35.63
2018-10-09T17:44:59.006Z,30.40
2018-10-09T17:47:09.008Z,30.00
2018-10-09T17:49:12.692Z,29.77
2018-10-09T17:51:16.348Z,30.70
2018-10-09T17:53:20.027Z,27.60
2018-10-09T17:55:23.669Z,26.83
2018-10-09T17:57:28.349Z,28.77
2018-10-09T17:59:31.948Z,26.07
2018-10-09T18:01:35.631Z,30.80
2018-10-09T18:03:39.178Z,28.33
2018-10-09T18:05:42.788Z,29.40
2018-10-09T18:07:46.412Z,30.63
2018-10-09T18:09:49.982Z,31.37
2018-10-09T18:11:53.570Z,34.43
2018-10-09T18:13:57.143Z,31.53
2018-10-09T18:16:00.783Z,31.47
2018-10-09T18:18:04.563Z,32.80
2018-10-09T18:20:08.297Z,34.07
2018-10-09T18:22:12.036Z,33.43
2018-10-09T18:24:15.656Z,38.43
2018-10-09T18:26:19.300Z,40.13
2018-10-09T18:28:22.921Z,34.83
2018-10-09T18:30:26.605Z,38.00
2018-10-09T18:32:30.285Z,51.47
2018-10-09T18:34:34.053Z,50.33
2018-10-09T18:36:38.637Z,41.73
2018-10-09T18:38:42.207Z,38.70
2018-10-09T18:40:46.573Z,38.27
2018-10-09T18:42:50.560Z,39.10
2018-10-09T18:44:54.135Z,37.00
2018-10-09T18:46:58.293Z,36.37
2018-10-09T18:49:01.931Z,35.23
2018-10-09T18:51:05.560Z,38.17
2018-10-09T18:53:09.128Z,40.27
2018-10-09T18:55:14.517Z,37.00
2018-10-09T18:57:18.086Z,37.37
2018-10-09T18:59:21.599Z,42.03
2018-10-09T19:01:25.170Z,41.50
2018-10-09T19:03:28.752Z,38.80
2018-10-09T19:05:32.317Z,44.27
2018-10-09T19:07:35.897Z,37.70
2018-10-09T19:09:39.495Z,41.60
2018-10-09T19:11:43.122Z,41.03
2018-10-09T19:13:46.764Z,50.47
2018-10-09T19:15:50.469Z,43.97
2018-10-09T19:17:54.152Z,41.40
2018-10-09T19:19:57.865Z,40.13
2018-10-09T19:22:01.503Z,41.27
2018-10-09T19:24:05.550Z,43.67
2018-10-09T19:26:09.120Z,44.30
2018-10-09T19:28:12.798Z,39.70
2018-10-09T19:30:16.407Z,37.10
2018-10-09T19:32:20.137Z,46.27
2018-10-09T19:34:23.942Z,41.27
2018-10-09T19:36:27.594Z,43.73
2018-10-09T19:38:31.175Z,49.27
2018-10-09T19:40:34.808Z,43.23
2018-10-09T19:42:38.563Z,40.03
2018-10-09T19:44:42.133Z,40.10
2018-10-09T19:46:46.112Z,38.17
2018-10-09T19:48:49.673Z,42.03
2018-10-09T19:50:53.436Z,38.27
2018-10-09T19:52:57.105Z,37.57
2018-10-09T19:55:00.818Z,43.03
2018-10-09T19:57:05.235Z,44.33
2018-10-09T19:59:08.886Z,38.97
2018-10-09T20:01:12.712Z,44.13
2018-10-09T20:03:16.508Z,39.33
2018-10-09T20:05:20.245Z,38.53
2018-10-09T20:07:23.978Z,45.73
2018-10-09T20:09:27.625Z,44.00
2018-10-09T20:11:31.231Z,46.47
2018-10-09T20:13:34.865Z,41.23
2018-10-09T20:15:38.468Z,46.13
2018-10-09T20:17:42.109Z,43.97
2018-10-09T20:19:45.759Z,45.00
2018-10-09T20:21:49.406Z,39.30
2018-10-09T20:23:53.016Z,45.30
2018-10-09T20:25:56.601Z,50.90
2018-10-09T20:28:00.229Z,48.03
2018-10-09T20:30:04.238Z,50.27
2018-10-09T20:32:07.870Z,48.77
2018-10-09T20:34:11.440Z,48.83
2018-10-09T20:36:15.003Z,51.73
2018-10-09T20:38:18.604Z,44.47
2018-10-09T20:40:22.831Z,45.23
2018-10-09T20:42:26.461Z,39.60
2018-10-09T20:44:30.104Z,37.83
2018-10-09T20:46:34.022Z,40.37
2018-10-09T20:48:37.619Z,37.13
2018-10-09T20:50:41.407Z,45.47
2018-10-09T20:52:45.052Z,37.77
2018-10-09T20:54:48.620Z,42.27
2018-10-09T20:56:52.218Z,43.70
2018-10-09T20:58:55.846Z,42.33
2018-10-09T21:00:59.411Z,43.90
2018-10-09T21:03:03.059Z,42.40
2018-10-09T21:05:07.012Z,41.43
2018-10-09T21:07:10.796Z,44.50
2018-10-09T21:09:14.430Z,41.37
2018-10-09T21:11:18.301Z,46.43
2018-10-09T21:13:21.905Z,43.87
2018-10-09T21:15:26.324Z,42.57
2018-10-09T21:17:31.348Z,46.43
2018-10-09T21:19:35.114Z,43.27
2018-10-09T21:21:39.188Z,45.33
2018-10-09T21:23:43.599Z,45.37
2018-10-09T21:25:47.107Z,44.50
2018-10-09T21:27:50.734Z,45.37
2018-10-09T21:29:54.412Z,48.23
2018-10-09T21:31:58.111Z,44.07
2018-10-09T21:34:01.673Z,45.63
2018-10-09T21:36:05.423Z,41.40
2018-10-09T21:38:09.095Z,45.73
2018-10-09T21:40:12.715Z,43.87
2018-10-09T21:42:16.334Z,40.63
2018-10-09T21:44:19.954Z,43.43
2018-10-09T21:46:23.863Z,50.77
2018-10-09T21:48:27.427Z,53.63
2018-10-09T21:50:31.040Z,51.40
2018-10-09T21:52:34.613Z,45.30
2018-10-09T21:54:38.317Z,46.30
2018-10-09T21:56:41.863Z,42.17
2018-10-09T21:58:45.456Z,40.07
2018-10-09T22:00:54.503Z,39.90
2018-10-09T22:02:58.084Z,39.50
2018-10-09T22:05:01.670Z,43.93
2018-10-09T22:07:05.292Z,40.70
2018-10-09T22:09:09.503Z,41.97
2018-10-09T22:11:13.051Z,45.87
2018-10-09T22:13:16.649Z,49.80
2018-10-09T22:15:20.297Z,45.90
2018-10-09T22:17:24.172Z,45.92
2018-10-09T22:19:27.724Z,44.90
2018-10-09T22:21:31.653Z,43.17
2018-10-09T22:23:35.632Z,41.27
2018-10-09T22:25:39.648Z,42.50
2018-10-09T22:27:43.537Z,38.35
2018-10-09T22:29:47.148Z,37.90
2018-10-09T22:31:50.693Z,37.20
2018-10-09T22:33:54.568Z,41.45
2018-10-09T22:35:58.443Z,39.70
2018-10-09T22:38:02.312Z,36.17
2018-10-09T22:40:07.083Z,35.48
2018-10-09T22:42:11.595Z,38.10
2018-10-09T22:44:15.466Z,34.95
2018-10-09T22:46:19.386Z,38.73
2018-10-09T22:48:23.257Z,47.98
2018-10-09T22:50:27.317Z,43.20
2018-10-09T22:52:31.848Z,42.93
2018-10-09T22:54:35.799Z,48.15
2018-10-09T22:56:39.701Z,37.73
2018-10-09T22:58:43.554Z,46.15
2018-10-09T23:00:47.459Z,44.73
2018-10-09T23:02:51.357Z,47.08
2018-10-09T23:04:55.275Z,51.98
2018-10-09T23:06:59.112Z,45.92
2018-10-09T23:09:03.172Z,44.95
2018-10-09T23:11:08.141Z,41.68
2018-10-09T23:13:12.007Z,42.90
2018-10-09T23:15:16.476Z,38.30
2018-10-09T23:17:20.331Z,40.38
2018-10-09T23:19:24.404Z,36.20
2018-10-09T23:21:28.455Z,37.75
2018-10-09T23:23:32.410Z,39.33
2018-10-09T23:25:36.463Z,40.20
2018-10-09T23:27:40.330Z,41.60
2018-10-09T23:29:44.228Z,55.50
2018-10-09T23:31:48.194Z,46.68
2018-10-09T23:33:52.196Z,54.35
2018-10-09T23:35:56.104Z,54.77
2018-10-09T23:37:59.943Z,48.05
2018-10-09T23:40:04.212Z,45.92
2018-10-09T23:42:08.105Z,51.00
2018-10-09T23:44:12.039Z,53.68
2018-10-09T23:46:16.059Z,46.13
2018-10-09T23:48:19.945Z,46.73
2018-10-09T23:50:23.868Z,43.23
2018-10-09T23:52:27.750Z,49.60
2018-10-09T23:54:31.606Z,47.10
2018-10-09T23:56:35.479Z,40.35
2018-10-09T23:58:39.713Z,42.98
